sensor_id;sensor_type;location;lat;lon;timestamp;P1;durP1;ratioP1;P2;durP2;ratioP2
6013;SDS011;3035;49.928;8.410;2022-12-07T00:02:16;11.10;;;6.63;;
6013;SDS011;3035;49.928;8.410;2022-12-07T00:04:45;14.60;;;7.10;;
6013;SDS011;3035;49.928;8.410;2022-12-07T00:07:13;10.97;;;6.93;;
6013;SDS011;3035;49.928;8.410;2022-12-07T00:09:41;13.00;;;7.60;;
6013;SDS011;3035;49.928;8.410;2022-12-07T00:12:10;10.97;;;7.20;;
6013;SDS011;3035;49.928;8.410;2022-12-07T00:14:39;11.17;;;6.63;;
6013;SDS011;3035;49.928;8.410;2022-12-07T00:17:07;13.60;;;7.77;;
6013;SDS011;3035;49.928;8.410;2022-12-07T00:19:35;14.17;;;7.30;;
6013;SDS011;3035;49.928;8.410;2022-12-07T00:22:03;11.60;;;7.20;;
6013;SDS011;3035;49.928;8.410;2022-12-07T00:24:32;12.23;;;7.50;;
6013;SDS011;3035;49.928;8.410;2022-12-07T00:27:01;12.33;;;7.40;;
6013;SDS011;3035;49.928;8.410;2022-12-07T00:29:29;16.33;;;7.60;;
6013;SDS011;3035;49.928;8.410;2022-12-07T00:31:58;29.50;;;6.60;;
6013;SDS011;3035;49.928;8.410;2022-12-07T00:34:26;11.57;;;7.10;;
6013;SDS011;3035;49.928;8.410;2022-12-07T00:36:54;12.20;;;7.63;;
6013;SDS011;3035;49.928;8.410;2022-12-07T00:39:24;12.83;;;7.40;;
6013;SDS011;3035;49.928;8.410;2022-12-07T00:41:52;11.33;;;6.80;;
6013;SDS011;3035;49.928;8.410;2022-12-07T00:44:20;11.37;;;7.33;;
6013;SDS011;3035;49.928;8.410;2022-12-07T00:46:48;9.33;;;5.17;;
6013;SDS011;3035;49.928;8.410;2022-12-07T00:49:16;10.87;;;6.30;;
6013;SDS011;3035;49.928;8.410;2022-12-07T00:51:47;9.87;;;6.30;;
6013;SDS011;3035;49.928;8.410;2022-12-07T00:54:14;10.40;;;6.30;;
6013;SDS011;3035;49.928;8.410;2022-12-07T00:56:43;9.57;;;6.00;;
6013;SDS011;3035;49.928;8.410;2022-12-07T00:59:12;11.03;;;6.53;;
6013;SDS011;3035;49.928;8.410;2022-12-07T01:01:42;14.83;;;7.20;;
6013;SDS011;3035;49.928;8.410;2022-12-07T01:04:11;15.47;;;6.67;;
6013;SDS011;3035;49.928;8.410;2022-12-07T01:06:39;10.07;;;5.60;;
6013;SDS011;3035;49.928;8.410;2022-12-07T01:09:07;7.43;;;4.70;;
6013;SDS011;3035;49.928;8.410;2022-12-07T01:11:37;9.20;;;6.10;;
6013;SDS011;3035;49.928;8.410;2022-12-07T01:14:05;8.50;;;5.47;;
6013;SDS011;3035;49.928;8.410;2022-12-07T01:16:33;10.80;;;5.97;;
6013;SDS011;3035;49.928;8.410;2022-12-07T01:19:02;7.20;;;5.33;;
6013;SDS011;3035;49.928;8.410;2022-12-07T01:21:31;9.63;;;6.03;;
6013;SDS011;3035;49.928;8.410;2022-12-07T01:24:06;18.43;;;6.53;;
6013;SDS011;3035;49.928;8.410;2022-12-07T01:26:34;9.10;;;5.80;;
6013;SDS011;3035;49.928;8.410;2022-12-07T01:29:02;9.83;;;6.20;;
6013;SDS011;3035;49.928;8.410;2022-12-07T01:31:32;14.77;;;5.30;;
6013;SDS011;3035;49.928;8.410;2022-12-07T01:34:00;12.97;;;5.50;;
6013;SDS011;3035;49.928;8.410;2022-12-07T01:36:29;8.30;;;5.63;;
6013;SDS011;3035;49.928;8.410;2022-12-07T01:38:57;7.67;;;5.20;;
6013;SDS011;3035;49.928;8.410;2022-12-07T01:41:26;6.80;;;5.00;;
6013;SDS011;3035;49.928;8.410;2022-12-07T01:46:39;11.07;;;5.80;;
6013;SDS011;3035;49.928;8.410;2022-12-07T01:49:08;9.10;;;5.90;;
6013;SDS011;3035;49.928;8.410;2022-12-07T01:51:36;10.53;;;5.60;;
6013;SDS011;3035;49.928;8.410;2022-12-07T01:54:04;10.93;;;5.63;;
6013;SDS011;3035;49.928;8.410;2022-12-07T01:56:32;10.17;;;5.70;;
6013;SDS011;3035;49.928;8.410;2022-12-07T01:59:00;8.03;;;5.60;;
6013;SDS011;3035;49.928;8.410;2022-12-07T02:01:28;9.17;;;5.80;;
6013;SDS011;3035;49.928;8.410;2022-12-07T02:03:57;6.83;;;5.50;;
6013;SDS011;3035;49.928;8.410;2022-12-07T02:06:26;8.30;;;5.20;;
6013;SDS011;3035;49.928;8.410;2022-12-07T02:08:54;8.90;;;5.03;;
6013;SDS011;3035;49.928;8.410;2022-12-07T02:11:22;8.57;;;5.40;;
6013;SDS011;3035;49.928;8.410;2022-12-07T02:13:51;8.60;;;5.60;;
6013;SDS011;3035;49.928;8.410;2022-12-07T02:16:22;8.43;;;5.43;;
6013;SDS011;3035;49.928;8.410;2022-12-07T02:21:51;12.07;;;5.53;;
6013;SDS011;3035;49.928;8.410;2022-12-07T02:24:27;8.27;;;5.20;;
6013;SDS011;3035;49.928;8.410;2022-12-07T02:30:12;8.53;;;5.63;;
6013;SDS011;3035;49.928;8.410;2022-12-07T02:35:34;8.50;;;5.60;;
6013;SDS011;3035;49.928;8.410;2022-12-07T02:38:23;10.77;;;5.43;;
6013;SDS011;3035;49.928;8.410;2022-12-07T02:40:50;8.57;;;5.23;;
6013;SDS011;3035;49.928;8.410;2022-12-07T02:43:23;12.57;;;5.70;;
6013;SDS011;3035;49.928;8.410;2022-12-07T02:45:53;6.33;;;4.93;;
6013;SDS011;3035;49.928;8.410;2022-12-07T02:48:20;8.73;;;5.30;;
6013;SDS011;3035;49.928;8.410;2022-12-07T02:50:50;7.60;;;5.57;;
6013;SDS011;3035;49.928;8.410;2022-12-07T02:56:07;8.80;;;5.30;;
6013;SDS011;3035;49.928;8.410;2022-12-07T02:58:46;8.87;;;5.27;;
6013;SDS011;3035;49.928;8.410;2022-12-07T03:01:42;8.27;;;5.50;;
6013;SDS011;3035;49.928;8.410;2022-12-07T03:07:14;8.47;;;5.10;;
6013;SDS011;3035;49.928;8.410;2022-12-07T03:09:48;9.40;;;5.43;;
6013;SDS011;3035;49.928;8.410;2022-12-07T03:12:37;10.70;;;4.83;;
6013;SDS011;3035;49.928;8.410;2022-12-07T03:15:05;12.20;;;5.43;;
6013;SDS011;3035;49.928;8.410;2022-12-07T03:17:35;11.43;;;5.60;;
6013;SDS011;3035;49.928;8.410;2022-12-07T03:20:03;8.67;;;5.43;;
6013;SDS011;3035;49.928;8.410;2022-12-07T03:22:33;13.73;;;6.07;;
6013;SDS011;3035;49.928;8.410;2022-12-07T03:25:03;7.67;;;4.80;;
6013;SDS011;3035;49.928;8.410;2022-12-07T03:27:33;8.40;;;5.60;;
6013;SDS011;3035;49.928;8.410;2022-12-07T03:33:04;9.13;;;5.10;;
6013;SDS011;3035;49.928;8.410;2022-12-07T03:35:40;9.13;;;5.23;;
6013;SDS011;3035;49.928;8.410;2022-12-07T03:38:20;9.47;;;4.73;;
6013;SDS011;3035;49.928;8.410;2022-12-07T03:40:52;8.00;;;4.87;;
6013;SDS011;3035;49.928;8.410;2022-12-07T03:43:29;10.40;;;5.10;;
6013;SDS011;3035;49.928;8.410;2022-12-07T03:46:03;6.97;;;5.10;;
6013;SDS011;3035;49.928;8.410;2022-12-07T03:48:35;11.03;;;5.37;;
6013;SDS011;3035;49.928;8.410;2022-12-07T03:51:11;7.57;;;4.57;;
6013;SDS011;3035;49.928;8.410;2022-12-07T03:53:44;12.30;;;5.10;;
6013;SDS011;3035;49.928;8.410;2022-12-07T03:56:12;8.10;;;4.27;;
6013;SDS011;3035;49.928;8.410;2022-12-07T03:58:40;6.37;;;4.33;;
6013;SDS011;3035;49.928;8.410;2022-12-07T04:01:08;6.57;;;4.73;;
6013;SDS011;3035;49.928;8.410;2022-12-07T04:03:37;8.50;;;5.10;;
6013;SDS011;3035;49.928;8.410;2022-12-07T04:06:06;8.30;;;4.93;;
6013;SDS011;3035;49.928;8.410;2022-12-07T04:08:35;7.87;;;4.70;;
6013;SDS011;3035;49.928;8.410;2022-12-07T04:11:03;9.20;;;5.27;;
6013;SDS011;3035;49.928;8.410;2022-12-07T04:13:32;7.00;;;4.80;;
6013;SDS011;3035;49.928;8.410;2022-12-07T04:16:00;8.50;;;5.30;;
6013;SDS011;3035;49.928;8.410;2022-12-07T04:18:29;7.57;;;4.40;;
6013;SDS011;3035;49.928;8.410;2022-12-07T04:20:57;7.87;;;5.10;;
6013;SDS011;3035;49.928;8.410;2022-12-07T04:23:25;8.10;;;5.00;;
6013;SDS011;3035;49.928;8.410;2022-12-07T04:25:53;11.00;;;5.17;;
6013;SDS011;3035;49.928;8.410;2022-12-07T04:28:21;5.17;;;4.20;;
6013;SDS011;3035;49.928;8.410;2022-12-07T04:30:50;8.00;;;4.60;;
6013;SDS011;3035;49.928;8.410;2022-12-07T04:33:18;7.07;;;3.90;;
6013;SDS011;3035;49.928;8.410;2022-12-07T04:35:46;10.70;;;5.20;;
6013;SDS011;3035;49.928;8.410;2022-12-07T04:38:14;8.03;;;4.03;;
6013;SDS011;3035;49.928;8.410;2022-12-07T04:40:43;7.67;;;4.27;;
6013;SDS011;3035;49.928;8.410;2022-12-07T04:43:12;7.77;;;4.90;;
6013;SDS011;3035;49.928;8.410;2022-12-07T04:45:44;6.43;;;4.37;;
6013;SDS011;3035;49.928;8.410;2022-12-07T04:48:08;10.20;;;4.80;;
6013;SDS011;3035;49.928;8.410;2022-12-07T04:50:36;7.53;;;4.17;;
6013;SDS011;3035;49.928;8.410;2022-12-07T04:53:05;6.93;;;4.87;;
6013;SDS011;3035;49.928;8.410;2022-12-07T04:55:34;11.17;;;5.40;;
6013;SDS011;3035;49.928;8.410;2022-12-07T04:58:02;10.63;;;5.77;;
6013;SDS011;3035;49.928;8.410;2022-12-07T05:00:31;9.87;;;5.77;;
6013;SDS011;3035;49.928;8.410;2022-12-07T05:02:59;9.60;;;5.20;;
6013;SDS011;3035;49.928;8.410;2022-12-07T05:05:28;9.67;;;5.97;;
6013;SDS011;3035;49.928;8.410;2022-12-07T05:07:57;9.03;;;5.30;;
6013;SDS011;3035;49.928;8.410;2022-12-07T05:10:25;9.57;;;6.03;;
6013;SDS011;3035;49.928;8.410;2022-12-07T05:12:54;11.00;;;6.77;;
6013;SDS011;3035;49.928;8.410;2022-12-07T05:15:22;13.80;;;7.60;;
6013;SDS011;3035;49.928;8.410;2022-12-07T05:17:50;8.70;;;5.37;;
6013;SDS011;3035;49.928;8.410;2022-12-07T05:20:18;8.20;;;6.33;;
6013;SDS011;3035;49.928;8.410;2022-12-07T05:22:46;11.33;;;6.43;;
6013;SDS011;3035;49.928;8.410;2022-12-07T05:25:15;10.63;;;7.27;;
6013;SDS011;3035;49.928;8.410;2022-12-07T05:27:43;9.57;;;5.90;;
6013;SDS011;3035;49.928;8.410;2022-12-07T05:30:12;10.10;;;6.10;;
6013;SDS011;3035;49.928;8.410;2022-12-07T05:32:40;9.10;;;6.53;;
6013;SDS011;3035;49.928;8.410;2022-12-07T05:35:09;7.60;;;5.40;;
6013;SDS011;3035;49.928;8.410;2022-12-07T05:37:37;11.57;;;6.93;;
6013;SDS011;3035;49.928;8.410;2022-12-07T05:40:06;13.00;;;7.43;;
6013;SDS011;3035;49.928;8.410;2022-12-07T05:42:36;14.30;;;7.20;;
6013;SDS011;3035;49.928;8.410;2022-12-07T05:45:05;12.33;;;8.10;;
6013;SDS011;3035;49.928;8.410;2022-12-07T05:47:35;9.90;;;6.60;;
6013;SDS011;3035;49.928;8.410;2022-12-07T05:50:03;11.70;;;6.63;;
6013;SDS011;3035;49.928;8.410;2022-12-07T05:52:34;9.57;;;6.03;;
6013;SDS011;3035;49.928;8.410;2022-12-07T05:55:02;13.87;;;7.57;;
6013;SDS011;3035;49.928;8.410;2022-12-07T05:57:32;10.97;;;6.10;;
6013;SDS011;3035;49.928;8.410;2022-12-07T06:00:00;13.73;;;6.83;;
6013;SDS011;3035;49.928;8.410;2022-12-07T06:02:29;12.20;;;6.63;;
6013;SDS011;3035;49.928;8.410;2022-12-07T06:04:57;9.93;;;6.77;;
6013;SDS011;3035;49.928;8.410;2022-12-07T06:07:26;11.97;;;6.57;;
6013;SDS011;3035;49.928;8.410;2022-12-07T06:09:54;8.83;;;6.47;;
6013;SDS011;3035;49.928;8.410;2022-12-07T06:12:23;11.70;;;7.20;;
6013;SDS011;3035;49.928;8.410;2022-12-07T06:14:57;11.10;;;6.33;;
6013;SDS011;3035;49.928;8.410;2022-12-07T06:17:25;14.83;;;8.27;;
6013;SDS011;3035;49.928;8.410;2022-12-07T06:19:55;11.20;;;6.70;;
6013;SDS011;3035;49.928;8.410;2022-12-07T06:22:23;11.10;;;7.27;;
6013;SDS011;3035;49.928;8.410;2022-12-07T06:24:52;13.20;;;6.60;;
6013;SDS011;3035;49.928;8.410;2022-12-07T06:27:20;13.33;;;7.07;;
6013;SDS011;3035;49.928;8.410;2022-12-07T06:29:48;12.07;;;7.13;;
6013;SDS011;3035;49.928;8.410;2022-12-07T06:32:17;12.87;;;7.73;;
6013;SDS011;3035;49.928;8.410;2022-12-07T06:34:47;13.60;;;6.80;;
6013;SDS011;3035;49.928;8.410;2022-12-07T06:37:15;15.10;;;6.93;;
6013;SDS011;3035;49.928;8.410;2022-12-07T06:39:44;16.00;;;7.57;;
6013;SDS011;3035;49.928;8.410;2022-12-07T06:42:12;15.00;;;7.70;;
6013;SDS011;3035;49.928;8.410;2022-12-07T06:44:40;13.23;;;7.40;;
6013;SDS011;3035;49.928;8.410;2022-12-07T06:47:08;16.50;;;7.03;;
6013;SDS011;3035;49.928;8.410;2022-12-07T06:49:36;17.87;;;7.70;;
6013;SDS011;3035;49.928;8.410;2022-12-07T06:52:05;17.73;;;8.13;;
6013;SDS011;3035;49.928;8.410;2022-12-07T06:54:34;14.07;;;7.70;;
6013;SDS011;3035;49.928;8.410;2022-12-07T06:57:02;15.97;;;8.83;;
6013;SDS011;3035;49.928;8.410;2022-12-07T06:59:31;15.43;;;8.40;;
6013;SDS011;3035;49.928;8.410;2022-12-07T07:01:59;12.30;;;7.07;;
6013;SDS011;3035;49.928;8.410;2022-12-07T07:04:28;14.53;;;7.93;;
6013;SDS011;3035;49.928;8.410;2022-12-07T07:06:56;12.00;;;6.70;;
6013;SDS011;3035;49.928;8.410;2022-12-07T07:09:25;13.87;;;8.00;;
6013;SDS011;3035;49.928;8.410;2022-12-07T07:11:54;15.47;;;8.27;;
6013;SDS011;3035;49.928;8.410;2022-12-07T07:14:22;14.83;;;7.47;;
6013;SDS011;3035;49.928;8.410;2022-12-07T07:16:51;17.70;;;8.07;;
6013;SDS011;3035;49.928;8.410;2022-12-07T07:19:19;11.03;;;7.43;;
6013;SDS011;3035;49.928;8.410;2022-12-07T07:21:47;12.23;;;6.90;;
6013;SDS011;3035;49.928;8.410;2022-12-07T07:24:15;13.87;;;8.27;;
6013;SDS011;3035;49.928;8.410;2022-12-07T07:26:45;12.30;;;7.27;;
6013;SDS011;3035;49.928;8.410;2022-12-07T07:29:13;12.93;;;7.73;;
6013;SDS011;3035;49.928;8.410;2022-12-07T07:31:41;13.60;;;8.30;;
6013;SDS011;3035;49.928;8.410;2022-12-07T07:34:09;13.10;;;7.83;;
6013;SDS011;3035;49.928;8.410;2022-12-07T07:36:37;12.80;;;8.23;;
6013;SDS011;3035;49.928;8.410;2022-12-07T07:39:07;14.77;;;8.50;;
6013;SDS011;3035;49.928;8.410;2022-12-07T07:41:36;17.20;;;8.30;;
6013;SDS011;3035;49.928;8.410;2022-12-07T07:44:05;15.03;;;8.37;;
6013;SDS011;3035;49.928;8.410;2022-12-07T07:46:34;15.70;;;8.10;;
6013;SDS011;3035;49.928;8.410;2022-12-07T07:49:02;16.30;;;8.80;;
6013;SDS011;3035;49.928;8.410;2022-12-07T07:51:30;14.27;;;8.70;;
6013;SDS011;3035;49.928;8.410;2022-12-07T07:53:59;15.30;;;8.50;;
6013;SDS011;3035;49.928;8.410;2022-12-07T07:56:27;13.50;;;8.73;;
6013;SDS011;3035;49.928;8.410;2022-12-07T07:58:56;14.40;;;8.00;;
6013;SDS011;3035;49.928;8.410;2022-12-07T08:01:24;12.80;;;8.37;;
6013;SDS011;3035;49.928;8.410;2022-12-07T08:03:52;15.60;;;8.10;;
6013;SDS011;3035;49.928;8.410;2022-12-07T08:06:21;14.70;;;8.60;;
6013;SDS011;3035;49.928;8.410;2022-12-07T08:08:50;13.23;;;8.77;;
6013;SDS011;3035;49.928;8.410;2022-12-07T08:11:19;16.33;;;8.13;;
6013;SDS011;3035;49.928;8.410;2022-12-07T08:13:48;12.50;;;7.93;;
6013;SDS011;3035;49.928;8.410;2022-12-07T08:16:16;13.87;;;8.20;;
6013;SDS011;3035;49.928;8.410;2022-12-07T08:18:44;12.07;;;7.60;;
6013;SDS011;3035;49.928;8.410;2022-12-07T08:21:13;16.47;;;8.07;;
6013;SDS011;3035;49.928;8.410;2022-12-07T08:23:41;14.47;;;7.87;;
6013;SDS011;3035;49.928;8.410;2022-12-07T08:26:11;15.87;;;8.43;;
6013;SDS011;3035;49.928;8.410;2022-12-07T08:28:38;12.37;;;8.30;;
6013;SDS011;3035;49.928;8.410;2022-12-07T08:31:11;20.87;;;8.77;;
6013;SDS011;3035;49.928;8.410;2022-12-07T08:33:38;14.37;;;8.10;;
6013;SDS011;3035;49.928;8.410;2022-12-07T08:36:07;17.53;;;9.40;;
6013;SDS011;3035;49.928;8.410;2022-12-07T08:38:36;11.63;;;7.70;;
6013;SDS011;3035;49.928;8.410;2022-12-07T08:41:04;24.50;;;9.80;;
6013;SDS011;3035;49.928;8.410;2022-12-07T08:43:32;13.00;;;8.43;;
6013;SDS011;3035;49.928;8.410;2022-12-07T08:46:08;16.83;;;9.50;;
6013;SDS011;3035;49.928;8.410;2022-12-07T08:48:40;10.67;;;7.40;;
6013;SDS011;3035;49.928;8.410;2022-12-07T08:51:07;12.37;;;8.27;;
6013;SDS011;3035;49.928;8.410;2022-12-07T08:53:37;14.33;;;8.00;;
6013;SDS011;3035;49.928;8.410;2022-12-07T08:56:04;10.60;;;7.03;;
6013;SDS011;3035;49.928;8.410;2022-12-07T08:58:34;12.33;;;6.87;;
6013;SDS011;3035;49.928;8.410;2022-12-07T09:01:02;14.27;;;7.57;;
6013;SDS011;3035;49.928;8.410;2022-12-07T09:03:30;11.17;;;6.90;;
6013;SDS011;3035;49.928;8.410;2022-12-07T09:05:59;12.10;;;7.00;;
6013;SDS011;3035;49.928;8.410;2022-12-07T09:08:30;14.23;;;8.17;;
6013;SDS011;3035;49.928;8.410;2022-12-07T09:10:58;13.30;;;8.00;;
6013;SDS011;3035;49.928;8.410;2022-12-07T09:13:27;18.10;;;7.97;;
6013;SDS011;3035;49.928;8.410;2022-12-07T09:15:55;14.00;;;8.30;;
6013;SDS011;3035;49.928;8.410;2022-12-07T09:18:24;13.10;;;7.60;;
6013;SDS011;3035;49.928;8.410;2022-12-07T09:20:52;14.23;;;8.07;;
6013;SDS011;3035;49.928;8.410;2022-12-07T09:23:20;12.90;;;8.33;;
6013;SDS011;3035;49.928;8.410;2022-12-07T09:25:49;13.10;;;8.10;;
6013;SDS011;3035;49.928;8.410;2022-12-07T09:28:18;15.00;;;7.80;;
6013;SDS011;3035;49.928;8.410;2022-12-07T09:30:46;13.43;;;8.47;;
6013;SDS011;3035;49.928;8.410;2022-12-07T09:33:14;13.07;;;6.73;;
6013;SDS011;3035;49.928;8.410;2022-12-07T09:35:44;15.70;;;7.90;;
6013;SDS011;3035;49.928;8.410;2022-12-07T09:38:13;11.97;;;7.20;;
6013;SDS011;3035;49.928;8.410;2022-12-07T09:40:42;11.80;;;7.30;;
6013;SDS011;3035;49.928;8.410;2022-12-07T09:43:12;13.17;;;7.87;;
6013;SDS011;3035;49.928;8.410;2022-12-07T09:45:42;15.53;;;7.90;;
6013;SDS011;3035;49.928;8.410;2022-12-07T09:48:18;11.07;;;7.10;;
6013;SDS011;3035;49.928;8.410;2022-12-07T09:50:57;12.77;;;8.10;;
6013;SDS011;3035;49.928;8.410;2022-12-07T09:53:20;13.37;;;7.67;;
6013;SDS011;3035;49.928;8.410;2022-12-07T09:55:48;14.47;;;8.67;;
6013;SDS011;3035;49.928;8.410;2022-12-07T09:58:21;26.50;;;13.33;;
6013;SDS011;3035;49.928;8.410;2022-12-07T10:00:49;18.77;;;9.93;;
6013;SDS011;3035;49.928;8.410;2022-12-07T10:03:19;13.07;;;8.13;;
6013;SDS011;3035;49.928;8.410;2022-12-07T10:05:48;16.30;;;7.73;;
6013;SDS011;3035;49.928;8.410;2022-12-07T10:08:16;12.20;;;7.13;;
6013;SDS011;3035;49.928;8.410;2022-12-07T10:10:45;11.80;;;7.73;;
6013;SDS011;3035;49.928;8.410;2022-12-07T10:13:13;14.90;;;8.10;;
6013;SDS011;3035;49.928;8.410;2022-12-07T10:15:47;12.03;;;8.00;;
6013;SDS011;3035;49.928;8.410;2022-12-07T10:18:25;9.50;;;6.10;;
6013;SDS011;3035;49.928;8.410;2022-12-07T10:21:09;15.43;;;7.43;;
6013;SDS011;3035;49.928;8.410;2022-12-07T10:23:58;10.80;;;7.47;;
6013;SDS011;3035;49.928;8.410;2022-12-07T10:26:32;8.40;;;5.90;;
6013;SDS011;3035;49.928;8.410;2022-12-07T10:29:02;9.37;;;6.40;;
6013;SDS011;3035;49.928;8.410;2022-12-07T10:32:00;13.83;;;7.30;;
6013;SDS011;3035;49.928;8.410;2022-12-07T10:34:32;12.00;;;6.97;;
6013;SDS011;3035;49.928;8.410;2022-12-07T10:39:47;17.23;;;7.03;;
6013;SDS011;3035;49.928;8.410;2022-12-07T10:42:17;10.37;;;6.47;;
6013;SDS011;3035;49.928;8.410;2022-12-07T10:44:45;17.53;;;6.00;;
6013;SDS011;3035;49.928;8.410;2022-12-07T10:47:21;9.97;;;6.40;;
6013;SDS011;3035;49.928;8.410;2022-12-07T10:50:18;7.63;;;5.90;;
6013;SDS011;3035;49.928;8.410;2022-12-07T10:53:25;8.60;;;5.93;;
6013;SDS011;3035;49.928;8.410;2022-12-07T10:55:58;13.70;;;7.53;;
6013;SDS011;3035;49.928;8.410;2022-12-07T10:58:36;11.73;;;6.20;;
6013;SDS011;3035;49.928;8.410;2022-12-07T11:01:13;10.23;;;5.27;;
6013;SDS011;3035;49.928;8.410;2022-12-07T11:07:02;8.60;;;4.63;;
6013;SDS011;3035;49.928;8.410;2022-12-07T11:09:38;4.27;;;3.20;;
6013;SDS011;3035;49.928;8.410;2022-12-07T11:12:25;10.70;;;3.50;;
6013;SDS011;3035;49.928;8.410;2022-12-07T11:18:00;5.10;;;2.67;;
6013;SDS011;3035;49.928;8.410;2022-12-07T11:20:37;3.53;;;2.50;;
6013;SDS011;3035;49.928;8.410;2022-12-07T11:23:18;5.00;;;2.70;;
6013;SDS011;3035;49.928;8.410;2022-12-07T11:25:56;8.10;;;2.50;;
6013;SDS011;3035;49.928;8.410;2022-12-07T11:31:41;7.33;;;2.20;;
6013;SDS011;3035;49.928;8.410;2022-12-07T11:34:18;10.23;;;2.43;;
6013;SDS011;3035;49.928;8.410;2022-12-07T11:36:58;2.73;;;2.03;;
6013;SDS011;3035;49.928;8.410;2022-12-07T11:39:33;9.23;;;1.73;;
6013;SDS011;3035;49.928;8.410;2022-12-07T11:42:03;3.30;;;1.93;;
6013;SDS011;3035;49.928;8.410;2022-12-07T11:44:40;9.03;;;2.07;;
6013;SDS011;3035;49.928;8.410;2022-12-07T11:47:17;2.67;;;1.90;;
6013;SDS011;3035;49.928;8.410;2022-12-07T11:50:03;3.90;;;2.37;;
6013;SDS011;3035;49.928;8.410;2022-12-07T11:52:51;9.00;;;2.00;;
6013;SDS011;3035;49.928;8.410;2022-12-07T11:55:29;6.20;;;2.20;;
6013;SDS011;3035;49.928;8.410;2022-12-07T11:58:04;4.30;;;1.63;;
6013;SDS011;3035;49.928;8.410;2022-12-07T12:00:32;4.93;;;1.87;;
6013;SDS011;3035;49.928;8.410;2022-12-07T12:03:02;2.67;;;1.57;;
6013;SDS011;3035;49.928;8.410;2022-12-07T12:05:30;7.33;;;1.90;;
6013;SDS011;3035;49.928;8.410;2022-12-07T12:08:12;4.83;;;1.77;;
6013;SDS011;3035;49.928;8.410;2022-12-07T12:10:53;2.90;;;1.80;;
6013;SDS011;3035;49.928;8.410;2022-12-07T12:19:36;3.57;;;1.90;;
6013;SDS011;3035;49.928;8.410;2022-12-07T12:22:21;2.33;;;1.93;;
6013;SDS011;3035;49.928;8.410;2022-12-07T12:24:50;4.10;;;1.63;;
6013;SDS011;3035;49.928;8.410;2022-12-07T12:27:23;4.60;;;2.07;;
6013;SDS011;3035;49.928;8.410;2022-12-07T12:29:54;5.20;;;1.63;;
6013;SDS011;3035;49.928;8.410;2022-12-07T12:32:35;4.43;;;1.80;;
6013;SDS011;3035;49.928;8.410;2022-12-07T12:37:47;4.80;;;1.83;;
6013;SDS011;3035;49.928;8.410;2022-12-07T12:43:39;4.47;;;1.63;;
6013;SDS011;3035;49.928;8.410;2022-12-07T12:45:36;4.83;;;1.40;;
6013;SDS011;3035;49.928;8.410;2022-12-07T12:48:26;2.10;;;1.37;;
6013;SDS011;3035;49.928;8.410;2022-12-07T12:51:35;2.07;;;1.27;;
6013;SDS011;3035;49.928;8.410;2022-12-07T12:53:35;3.80;;;1.10;;
6013;SDS011;3035;49.928;8.410;2022-12-07T12:58:46;1.57;;;1.30;;
6013;SDS011;3035;49.928;8.410;2022-12-07T13:04:14;4.73;;;1.30;;
6013;SDS011;3035;49.928;8.410;2022-12-07T13:06:59;4.80;;;1.70;;
6013;SDS011;3035;49.928;8.410;2022-12-07T13:09:29;2.77;;;1.40;;
6013;SDS011;3035;49.928;8.410;2022-12-07T13:11:58;9.87;;;1.60;;
6013;SDS011;3035;49.928;8.410;2022-12-07T13:14:38;2.63;;;1.70;;
6013;SDS011;3035;49.928;8.410;2022-12-07T13:23:18;2.93;;;1.63;;
6013;SDS011;3035;49.928;8.410;2022-12-07T13:25:51;3.40;;;1.43;;
6013;SDS011;3035;49.928;8.410;2022-12-07T13:28:22;3.23;;;1.70;;
6013;SDS011;3035;49.928;8.410;2022-12-07T13:31:00;4.47;;;1.40;;
6013;SDS011;3035;49.928;8.410;2022-12-07T13:33:45;3.50;;;2.20;;
6013;SDS011;3035;49.928;8.410;2022-12-07T13:36:18;1.43;;;1.30;;
6013;SDS011;3035;49.928;8.410;2022-12-07T13:38:59;2.90;;;1.47;;
6013;SDS011;3035;49.928;8.410;2022-12-07T13:41:29;1.83;;;1.10;;
6013;SDS011;3035;49.928;8.410;2022-12-07T13:44:00;2.90;;;1.60;;
6013;SDS011;3035;49.928;8.410;2022-12-07T13:46:35;1.80;;;1.30;;
6013;SDS011;3035;49.928;8.410;2022-12-07T13:49:18;2.73;;;1.87;;
6013;SDS011;3035;49.928;8.410;2022-12-07T13:51:46;3.30;;;1.50;;
6013;SDS011;3035;49.928;8.410;2022-12-07T13:54:14;12.93;;;1.60;;
6013;SDS011;3035;49.928;8.410;2022-12-07T13:56:42;3.00;;;1.67;;
6013;SDS011;3035;49.928;8.410;2022-12-07T13:59:16;3.33;;;1.67;;
6013;SDS011;3035;49.928;8.410;2022-12-07T14:01:44;5.47;;;1.83;;
6013;SDS011;3035;49.928;8.410;2022-12-07T14:04:19;7.07;;;2.20;;
6013;SDS011;3035;49.928;8.410;2022-12-07T14:06:59;8.83;;;1.80;;
6013;SDS011;3035;49.928;8.410;2022-12-07T14:09:29;4.87;;;2.00;;
6013;SDS011;3035;49.928;8.410;2022-12-07T14:11:56;2.30;;;1.90;;
6013;SDS011;3035;49.928;8.410;2022-12-07T14:14:31;5.47;;;1.97;;
6013;SDS011;3035;49.928;8.410;2022-12-07T14:17:08;3.33;;;2.00;;
6013;SDS011;3035;49.928;8.410;2022-12-07T14:22:25;3.97;;;2.10;;
6013;SDS011;3035;49.928;8.410;2022-12-07T14:25:15;2.40;;;2.07;;
6013;SDS011;3035;49.928;8.410;2022-12-07T14:27:48;8.30;;;4.23;;
6013;SDS011;3035;49.928;8.410;2022-12-07T14:30:19;7.00;;;3.17;;
6013;SDS011;3035;49.928;8.410;2022-12-07T14:32:48;3.47;;;2.07;;
6013;SDS011;3035;49.928;8.410;2022-12-07T14:35:16;4.37;;;2.00;;
6013;SDS011;3035;49.928;8.410;2022-12-07T14:37:45;3.90;;;1.93;;
6013;SDS011;3035;49.928;8.410;2022-12-07T14:40:13;2.00;;;1.50;;
6013;SDS011;3035;49.928;8.410;2022-12-07T14:42:43;2.70;;;1.40;;
6013;SDS011;3035;49.928;8.410;2022-12-07T14:45:13;2.47;;;1.20;;
6013;SDS011;3035;49.928;8.410;2022-12-07T14:47:40;1.27;;;1.13;;
6013;SDS011;3035;49.928;8.410;2022-12-07T14:50:10;3.80;;;1.67;;
6013;SDS011;3035;49.928;8.410;2022-12-07T14:52:36;2.73;;;1.10;;
6013;SDS011;3035;49.928;8.410;2022-12-07T14:55:07;9.83;;;1.60;;
6013;SDS011;3035;49.928;8.410;2022-12-07T14:57:40;3.40;;;1.27;;
6013;SDS011;3035;49.928;8.410;2022-12-07T15:00:13;3.07;;;1.43;;
6013;SDS011;3035;49.928;8.410;2022-12-07T15:02:41;2.77;;;1.40;;
6013;SDS011;3035;49.928;8.410;2022-12-07T15:05:09;2.47;;;1.63;;
6013;SDS011;3035;49.928;8.410;2022-12-07T15:07:37;2.80;;;1.30;;
6013;SDS011;3035;49.928;8.410;2022-12-07T15:10:06;1.83;;;1.27;;
6013;SDS011;3035;49.928;8.410;2022-12-07T15:12:49;2.40;;;1.60;;
6013;SDS011;3035;49.928;8.410;2022-12-07T15:15:17;4.23;;;1.40;;
6013;SDS011;3035;49.928;8.410;2022-12-07T15:17:46;2.70;;;1.80;;
6013;SDS011;3035;49.928;8.410;2022-12-07T15:20:14;2.40;;;1.40;;
6013;SDS011;3035;49.928;8.410;2022-12-07T15:22:42;3.37;;;1.40;;
6013;SDS011;3035;49.928;8.410;2022-12-07T15:25:13;6.70;;;1.63;;
6013;SDS011;3035;49.928;8.410;2022-12-07T15:27:42;3.57;;;1.40;;
6013;SDS011;3035;49.928;8.410;2022-12-07T15:30:10;1.30;;;1.20;;
6013;SDS011;3035;49.928;8.410;2022-12-07T15:32:39;11.73;;;1.80;;
6013;SDS011;3035;49.928;8.410;2022-12-07T15:35:07;2.33;;;1.50;;
6013;SDS011;3035;49.928;8.410;2022-12-07T15:37:36;7.67;;;1.73;;
6013;SDS011;3035;49.928;8.410;2022-12-07T15:40:04;3.03;;;1.13;;
6013;SDS011;3035;49.928;8.410;2022-12-07T15:42:35;1.10;;;1.00;;
6013;SDS011;3035;49.928;8.410;2022-12-07T15:45:04;2.90;;;1.60;;
6013;SDS011;3035;49.928;8.410;2022-12-07T15:47:35;2.40;;;1.67;;
6013;SDS011;3035;49.928;8.410;2022-12-07T15:50:05;7.13;;;1.37;;
6013;SDS011;3035;49.928;8.410;2022-12-07T15:52:34;3.30;;;1.73;;
6013;SDS011;3035;49.928;8.410;2022-12-07T15:55:02;4.73;;;1.40;;
6013;SDS011;3035;49.928;8.410;2022-12-07T15:57:32;4.33;;;1.80;;
6013;SDS011;3035;49.928;8.410;2022-12-07T16:00:00;2.80;;;1.80;;
6013;SDS011;3035;49.928;8.410;2022-12-07T16:02:28;3.17;;;1.70;;
6013;SDS011;3035;49.928;8.410;2022-12-07T16:04:56;2.63;;;1.70;;
6013;SDS011;3035;49.928;8.410;2022-12-07T16:07:25;3.63;;;1.47;;
6013;SDS011;3035;49.928;8.410;2022-12-07T16:09:53;9.57;;;2.00;;
6013;SDS011;3035;49.928;8.410;2022-12-07T16:12:22;3.40;;;2.03;;
6013;SDS011;3035;49.928;8.410;2022-12-07T16:14:51;1.83;;;1.43;;
6013;SDS011;3035;49.928;8.410;2022-12-07T16:17:19;3.30;;;1.50;;
6013;SDS011;3035;49.928;8.410;2022-12-07T16:19:47;8.13;;;2.27;;
6013;SDS011;3035;49.928;8.410;2022-12-07T16:22:16;4.47;;;2.07;;
6013;SDS011;3035;49.928;8.410;2022-12-07T16:24:44;5.70;;;2.53;;
6013;SDS011;3035;49.928;8.410;2022-12-07T16:27:12;4.93;;;2.00;;
6013;SDS011;3035;49.928;8.410;2022-12-07T16:29:41;6.87;;;2.30;;